sensor_id;sensor_type;location;lat;lon;timestamp;P1;durP1;ratioP1;P2;durP2;ratioP2
11000;SDS011;5553;48.506;8.870;2023-02-20T00:06:48;4.10;;;2.40;;
11000;SDS011;5553;48.506;8.870;2023-02-20T00:09:16;5.30;;;2.83;;
11000;SDS011;5553;48.506;8.870;2023-02-20T00:11:44;6.40;;;3.10;;
11000;SDS011;5553;48.506;8.870;2023-02-20T00:14:13;5.13;;;2.90;;
11000;SDS011;5553;48.506;8.870;2023-02-20T00:16:43;8.97;;;3.13;;
11000;SDS011;5553;48.506;8.870;2023-02-20T00:19:13;8.40;;;3.63;;
11000;SDS011;5553;48.506;8.870;2023-02-20T00:21:48;5.20;;;2.43;;
11000;SDS011;5553;48.506;8.870;2023-02-20T00:24:18;8.30;;;3.30;;
11000;SDS011;5553;48.506;8.870;2023-02-20T00:26:47;5.60;;;2.90;;
11000;SDS011;5553;48.506;8.870;2023-02-20T00:29:16;8.40;;;3.40;;
11000;SDS011;5553;48.506;8.870;2023-02-20T00:31:48;6.10;;;3.00;;
11000;SDS011;5553;48.506;8.870;2023-02-20T00:34:18;5.90;;;2.90;;
11000;SDS011;5553;48.506;8.870;2023-02-20T00:36:49;4.23;;;2.67;;
11000;SDS011;5553;48.506;8.870;2023-02-20T00:39:17;3.87;;;3.10;;
11000;SDS011;5553;48.506;8.870;2023-02-20T00:41:45;4.77;;;3.20;;
11000;SDS011;5553;48.506;8.870;2023-02-20T00:44:13;4.57;;;2.77;;
11000;SDS011;5553;48.506;8.870;2023-02-20T00:46:42;5.03;;;2.67;;
11000;SDS011;5553;48.506;8.870;2023-02-20T00:49:10;4.33;;;2.80;;
11000;SDS011;5553;48.506;8.870;2023-02-20T00:51:38;9.57;;;3.20;;
11000;SDS011;5553;48.506;8.870;2023-02-20T00:54:09;3.27;;;2.60;;
11000;SDS011;5553;48.506;8.870;2023-02-20T00:56:38;6.67;;;3.70;;
11000;SDS011;5553;48.506;8.870;2023-02-20T00:59:06;7.50;;;3.40;;
11000;SDS011;5553;48.506;8.870;2023-02-20T01:01:34;6.87;;;3.23;;
11000;SDS011;5553;48.506;8.870;2023-02-20T01:04:03;6.70;;;3.63;;
11000;SDS011;5553;48.506;8.870;2023-02-20T01:06:31;7.60;;;3.30;;
11000;SDS011;5553;48.506;8.870;2023-02-20T01:08:59;5.70;;;2.77;;
11000;SDS011;5553;48.506;8.870;2023-02-20T01:11:30;4.07;;;2.90;;
11000;SDS011;5553;48.506;8.870;2023-02-20T01:13:58;5.23;;;3.00;;
11000;SDS011;5553;48.506;8.870;2023-02-20T01:16:26;7.03;;;2.97;;
11000;SDS011;5553;48.506;8.870;2023-02-20T01:18:55;5.90;;;3.23;;
11000;SDS011;5553;48.506;8.870;2023-02-20T01:21:23;7.20;;;3.27;;
11000;SDS011;5553;48.506;8.870;2023-02-20T01:23:51;4.70;;;3.10;;
11000;SDS011;5553;48.506;8.870;2023-02-20T01:26:19;11.83;;;2.90;;
11000;SDS011;5553;48.506;8.870;2023-02-20T01:28:50;7.03;;;2.77;;
11000;SDS011;5553;48.506;8.870;2023-02-20T01:31:19;6.50;;;2.63;;
11000;SDS011;5553;48.506;8.870;2023-02-20T01:33:47;9.20;;;3.53;;
11000;SDS011;5553;48.506;8.870;2023-02-20T01:36:15;3.63;;;2.80;;
11000;SDS011;5553;48.506;8.870;2023-02-20T01:38:44;5.60;;;2.60;;
11000;SDS011;5553;48.506;8.870;2023-02-20T01:41:15;8.83;;;3.00;;
11000;SDS011;5553;48.506;8.870;2023-02-20T01:43:44;4.87;;;3.03;;
11000;SDS011;5553;48.506;8.870;2023-02-20T01:49:16;7.97;;;2.73;;
11000;SDS011;5553;48.506;8.870;2023-02-20T01:51:50;6.37;;;3.23;;
11000;SDS011;5553;48.506;8.870;2023-02-20T01:54:23;9.70;;;3.43;;
11000;SDS011;5553;48.506;8.870;2023-02-20T01:56:53;6.30;;;2.87;;
11000;SDS011;5553;48.506;8.870;2023-02-20T01:59:25;6.27;;;3.60;;
11000;SDS011;5553;48.506;8.870;2023-02-20T02:01:59;6.03;;;3.13;;
11000;SDS011;5553;48.506;8.870;2023-02-20T02:04:27;3.63;;;2.60;;
11000;SDS011;5553;48.506;8.870;2023-02-20T02:06:56;7.50;;;2.90;;
11000;SDS011;5553;48.506;8.870;2023-02-20T02:09:28;4.53;;;2.80;;
11000;SDS011;5553;48.506;8.870;2023-02-20T02:12:05;5.93;;;3.07;;
11000;SDS011;5553;48.506;8.870;2023-02-20T02:14:33;6.50;;;3.23;;
11000;SDS011;5553;48.506;8.870;2023-02-20T02:17:16;4.30;;;2.97;;
11000;SDS011;5553;48.506;8.870;2023-02-20T02:20:03;8.23;;;2.97;;
11000;SDS011;5553;48.506;8.870;2023-02-20T02:25:54;5.93;;;3.10;;
11000;SDS011;5553;48.506;8.870;2023-02-20T02:28:40;5.50;;;3.50;;
11000;SDS011;5553;48.506;8.870;2023-02-20T02:31:48;5.83;;;3.30;;
11000;SDS011;5553;48.506;8.870;2023-02-20T02:34:37;9.00;;;3.13;;
11000;SDS011;5553;48.506;8.870;2023-02-20T02:37:23;5.03;;;3.60;;
11000;SDS011;5553;48.506;8.870;2023-02-20T02:39:56;8.27;;;3.03;;
11000;SDS011;5553;48.506;8.870;2023-02-20T02:42:34;8.33;;;3.50;;
11000;SDS011;5553;48.506;8.870;2023-02-20T02:45:11;10.27;;;3.40;;
11000;SDS011;5553;48.506;8.870;2023-02-20T02:47:45;3.60;;;2.70;;
11000;SDS011;5553;48.506;8.870;2023-02-20T02:50:18;5.93;;;3.43;;
11000;SDS011;5553;48.506;8.870;2023-02-20T02:52:53;3.90;;;2.87;;
11000;SDS011;5553;48.506;8.870;2023-02-20T02:55:23;6.80;;;2.80;;
11000;SDS011;5553;48.506;8.870;2023-02-20T02:57:53;5.67;;;3.00;;
11000;SDS011;5553;48.506;8.870;2023-02-20T03:00:22;6.20;;;2.90;;
11000;SDS011;5553;48.506;8.870;2023-02-20T03:02:55;12.40;;;3.80;;
11000;SDS011;5553;48.506;8.870;2023-02-20T03:05:28;4.33;;;3.40;;
11000;SDS011;5553;48.506;8.870;2023-02-20T03:08:14;7.77;;;2.80;;
11000;SDS011;5553;48.506;8.870;2023-02-20T03:10:55;5.00;;;2.97;;
11000;SDS011;5553;48.506;8.870;2023-02-20T03:13:27;6.40;;;3.00;;
11000;SDS011;5553;48.506;8.870;2023-02-20T03:16:12;6.30;;;3.47;;
11000;SDS011;5553;48.506;8.870;2023-02-20T03:18:43;5.90;;;3.00;;
11000;SDS011;5553;48.506;8.870;2023-02-20T03:21:14;4.87;;;3.10;;
11000;SDS011;5553;48.506;8.870;2023-02-20T03:23:49;6.60;;;3.50;;
11000;SDS011;5553;48.506;8.870;2023-02-20T03:26:22;6.00;;;3.13;;
11000;SDS011;5553;48.506;8.870;2023-02-20T03:28:58;7.10;;;3.67;;
11000;SDS011;5553;48.506;8.870;2023-02-20T03:31:34;5.77;;;3.23;;
11000;SDS011;5553;48.506;8.870;2023-02-20T03:34:09;8.50;;;3.57;;
11000;SDS011;5553;48.506;8.870;2023-02-20T03:36:53;7.10;;;3.30;;
11000;SDS011;5553;48.506;8.870;2023-02-20T03:39:43;5.50;;;3.80;;
11000;SDS011;5553;48.506;8.870;2023-02-20T03:42:27;14.10;;;4.60;;
11000;SDS011;5553;48.506;8.870;2023-02-20T03:45:10;11.57;;;3.60;;
11000;SDS011;5553;48.506;8.870;2023-02-20T03:47:42;6.90;;;3.73;;
11000;SDS011;5553;48.506;8.870;2023-02-20T03:50:14;6.80;;;3.13;;
11000;SDS011;5553;48.506;8.870;2023-02-20T03:52:55;7.90;;;3.83;;
11000;SDS011;5553;48.506;8.870;2023-02-20T03:55:26;6.03;;;4.07;;
11000;SDS011;5553;48.506;8.870;2023-02-20T03:57:56;8.90;;;3.60;;
11000;SDS011;5553;48.506;8.870;2023-02-20T04:00:27;7.03;;;4.00;;
11000;SDS011;5553;48.506;8.870;2023-02-20T04:02:59;12.33;;;4.20;;
11000;SDS011;5553;48.506;8.870;2023-02-20T04:05:32;4.30;;;3.10;;
11000;SDS011;5553;48.506;8.870;2023-02-20T04:08:05;5.77;;;3.17;;
11000;SDS011;5553;48.506;8.870;2023-02-20T04:10:41;6.07;;;3.33;;
11000;SDS011;5553;48.506;8.870;2023-02-20T04:13:14;7.97;;;3.50;;
11000;SDS011;5553;48.506;8.870;2023-02-20T04:15:44;4.77;;;3.23;;
11000;SDS011;5553;48.506;8.870;2023-02-20T04:18:14;4.73;;;3.53;;
11000;SDS011;5553;48.506;8.870;2023-02-20T04:20:45;7.70;;;3.70;;
11000;SDS011;5553;48.506;8.870;2023-02-20T04:23:17;9.80;;;4.70;;
11000;SDS011;5553;48.506;8.870;2023-02-20T04:25:50;8.20;;;4.20;;
11000;SDS011;5553;48.506;8.870;2023-02-20T04:28:22;6.93;;;3.57;;
11000;SDS011;5553;48.506;8.870;2023-02-20T04:30:51;8.07;;;3.60;;
11000;SDS011;5553;48.506;8.870;2023-02-20T04:33:22;5.20;;;3.00;;
11000;SDS011;5553;48.506;8.870;2023-02-20T04:35:50;7.63;;;3.57;;
11000;SDS011;5553;48.506;8.870;2023-02-20T04:38:19;8.70;;;3.70;;
11000;SDS011;5553;48.506;8.870;2023-02-20T04:40:50;9.23;;;5.00;;
11000;SDS011;5553;48.506;8.870;2023-02-20T04:43:18;5.97;;;3.93;;
11000;SDS011;5553;48.506;8.870;2023-02-20T04:45:46;8.17;;;4.53;;
11000;SDS011;5553;48.506;8.870;2023-02-20T04:48:15;6.73;;;3.70;;
11000;SDS011;5553;48.506;8.870;2023-02-20T04:50:43;9.80;;;4.20;;
11000;SDS011;5553;48.506;8.870;2023-02-20T04:53:11;11.17;;;4.30;;
11000;SDS011;5553;48.506;8.870;2023-02-20T04:55:39;7.93;;;4.50;;
11000;SDS011;5553;48.506;8.870;2023-02-20T04:58:10;8.07;;;3.70;;
11000;SDS011;5553;48.506;8.870;2023-02-20T05:00:39;9.70;;;4.23;;
11000;SDS011;5553;48.506;8.870;2023-02-20T05:03:07;7.40;;;4.03;;
11000;SDS011;5553;48.506;8.870;2023-02-20T05:05:35;15.33;;;4.53;;
11000;SDS011;5553;48.506;8.870;2023-02-20T05:08:04;13.67;;;5.20;;
11000;SDS011;5553;48.506;8.870;2023-02-20T05:10:34;5.63;;;3.97;;
11000;SDS011;5553;48.506;8.870;2023-02-20T05:13:03;6.43;;;4.30;;
11000;SDS011;5553;48.506;8.870;2023-02-20T05:15:34;8.33;;;4.03;;
11000;SDS011;5553;48.506;8.870;2023-02-20T05:18:02;5.67;;;3.87;;
11000;SDS011;5553;48.506;8.870;2023-02-20T05:20:30;7.60;;;4.63;;
11000;SDS011;5553;48.506;8.870;2023-02-20T05:23:11;6.77;;;3.97;;
11000;SDS011;5553;48.506;8.870;2023-02-20T05:25:40;8.10;;;4.20;;
11000;SDS011;5553;48.506;8.870;2023-02-20T05:28:08;5.43;;;4.00;;
11000;SDS011;5553;48.506;8.870;2023-02-20T05:30:39;7.70;;;4.53;;
11000;SDS011;5553;48.506;8.870;2023-02-20T05:33:07;7.50;;;4.47;;
11000;SDS011;5553;48.506;8.870;2023-02-20T05:35:35;8.30;;;4.40;;
11000;SDS011;5553;48.506;8.870;2023-02-20T05:38:05;7.23;;;4.23;;
11000;SDS011;5553;48.506;8.870;2023-02-20T05:40:34;9.73;;;4.50;;
11000;SDS011;5553;48.506;8.870;2023-02-20T05:43:02;6.73;;;4.30;;
11000;SDS011;5553;48.506;8.870;2023-02-20T05:45:30;5.43;;;3.87;;
11000;SDS011;5553;48.506;8.870;2023-02-20T05:48:01;9.53;;;4.43;;
11000;SDS011;5553;48.506;8.870;2023-02-20T05:50:30;6.60;;;3.50;;
11000;SDS011;5553;48.506;8.870;2023-02-20T05:52:58;12.83;;;4.30;;
11000;SDS011;5553;48.506;8.870;2023-02-20T05:55:26;7.50;;;3.63;;
11000;SDS011;5553;48.506;8.870;2023-02-20T05:57:55;4.43;;;3.37;;
11000;SDS011;5553;48.506;8.870;2023-02-20T06:00:23;9.93;;;4.17;;
11000;SDS011;5553;48.506;8.870;2023-02-20T06:02:52;7.13;;;3.20;;
11000;SDS011;5553;48.506;8.870;2023-02-20T06:05:23;7.63;;;3.37;;
11000;SDS011;5553;48.506;8.870;2023-02-20T06:07:52;7.53;;;3.40;;
11000;SDS011;5553;48.506;8.870;2023-02-20T06:10:20;6.03;;;4.03;;
11000;SDS011;5553;48.506;8.870;2023-02-20T06:12:49;8.87;;;4.30;;
11000;SDS011;5553;48.506;8.870;2023-02-20T06:15:17;6.83;;;4.00;;
11000;SDS011;5553;48.506;8.870;2023-02-20T06:17:45;7.57;;;3.83;;
11000;SDS011;5553;48.506;8.870;2023-02-20T06:20:13;5.70;;;3.40;;
11000;SDS011;5553;48.506;8.870;2023-02-20T06:22:44;6.20;;;4.23;;
11000;SDS011;5553;48.506;8.870;2023-02-20T06:25:15;7.77;;;4.43;;
11000;SDS011;5553;48.506;8.870;2023-02-20T06:27:43;7.63;;;3.90;;
11000;SDS011;5553;48.506;8.870;2023-02-20T06:30:12;7.20;;;4.10;;
11000;SDS011;5553;48.506;8.870;2023-02-20T06:32:41;5.87;;;3.90;;
11000;SDS011;5553;48.506;8.870;2023-02-20T06:35:09;8.60;;;3.73;;
11000;SDS011;5553;48.506;8.870;2023-02-20T06:37:37;11.87;;;4.53;;
11000;SDS011;5553;48.506;8.870;2023-02-20T06:40:09;5.80;;;3.53;;
11000;SDS011;5553;48.506;8.870;2023-02-20T06:42:38;7.90;;;4.60;;
11000;SDS011;5553;48.506;8.870;2023-02-20T06:45:06;6.73;;;4.57;;
11000;SDS011;5553;48.506;8.870;2023-02-20T06:47:35;5.63;;;3.80;;
11000;SDS011;5553;48.506;8.870;2023-02-20T06:50:03;7.80;;;4.57;;
11000;SDS011;5553;48.506;8.870;2023-02-20T06:52:32;10.53;;;3.70;;
11000;SDS011;5553;48.506;8.870;2023-02-20T06:55:00;9.37;;;4.17;;
11000;SDS011;5553;48.506;8.870;2023-02-20T06:57:33;16.53;;;7.33;;
11000;SDS011;5553;48.506;8.870;2023-02-20T07:00:01;6.67;;;4.00;;
11000;SDS011;5553;48.506;8.870;2023-02-20T07:02:30;12.27;;;4.17;;
11000;SDS011;5553;48.506;8.870;2023-02-20T07:05:01;6.23;;;3.50;;
11000;SDS011;5553;48.506;8.870;2023-02-20T07:07:29;4.90;;;4.00;;
11000;SDS011;5553;48.506;8.870;2023-02-20T07:09:57;12.93;;;4.13;;
11000;SDS011;5553;48.506;8.870;2023-02-20T07:12:27;11.33;;;4.23;;
11000;SDS011;5553;48.506;8.870;2023-02-20T07:14:59;7.77;;;4.67;;
11000;SDS011;5553;48.506;8.870;2023-02-20T07:17:27;7.53;;;4.90;;
11000;SDS011;5553;48.506;8.870;2023-02-20T07:19:55;7.30;;;3.70;;
11000;SDS011;5553;48.506;8.870;2023-02-20T07:22:24;7.70;;;3.70;;
11000;SDS011;5553;48.506;8.870;2023-02-20T07:24:52;7.07;;;3.70;;
11000;SDS011;5553;48.506;8.870;2023-02-20T07:27:21;7.90;;;3.63;;
11000;SDS011;5553;48.506;8.870;2023-02-20T07:29:49;6.53;;;4.00;;
11000;SDS011;5553;48.506;8.870;2023-02-20T07:32:20;8.50;;;3.97;;
11000;SDS011;5553;48.506;8.870;2023-02-20T07:34:49;7.53;;;3.40;;
11000;SDS011;5553;48.506;8.870;2023-02-20T07:37:17;3.93;;;3.53;;
11000;SDS011;5553;48.506;8.870;2023-02-20T07:39:45;8.17;;;3.83;;
11000;SDS011;5553;48.506;8.870;2023-02-20T07:42:15;5.17;;;3.53;;
11000;SDS011;5553;48.506;8.870;2023-02-20T07:44:43;6.70;;;3.40;;
11000;SDS011;5553;48.506;8.870;2023-02-20T07:47:13;6.83;;;3.57;;
11000;SDS011;5553;48.506;8.870;2023-02-20T07:49:44;5.87;;;3.73;;
11000;SDS011;5553;48.506;8.870;2023-02-20T07:52:12;5.03;;;3.90;;
11000;SDS011;5553;48.506;8.870;2023-02-20T07:54:41;6.50;;;3.93;;
11000;SDS011;5553;48.506;8.870;2023-02-20T07:57:10;5.90;;;4.10;;
11000;SDS011;5553;48.506;8.870;2023-02-20T07:59:39;5.10;;;3.50;;
11000;SDS011;5553;48.506;8.870;2023-02-20T08:02:07;5.67;;;3.60;;
11000;SDS011;5553;48.506;8.870;2023-02-20T08:04:36;6.13;;;3.67;;
11000;SDS011;5553;48.506;8.870;2023-02-20T08:07:07;7.83;;;3.67;;
11000;SDS011;5553;48.506;8.870;2023-02-20T08:09:35;8.23;;;3.60;;
11000;SDS011;5553;48.506;8.870;2023-02-20T08:12:03;4.10;;;2.67;;
11000;SDS011;5553;48.506;8.870;2023-02-20T08:14:32;7.07;;;3.60;;
11000;SDS011;5553;48.506;8.870;2023-02-20T08:17:00;4.50;;;2.80;;
11000;SDS011;5553;48.506;8.870;2023-02-20T08:19:28;5.83;;;2.50;;
11000;SDS011;5553;48.506;8.870;2023-02-20T08:21:56;4.47;;;2.60;;
11000;SDS011;5553;48.506;8.870;2023-02-20T08:24:27;5.37;;;3.33;;
11000;SDS011;5553;48.506;8.870;2023-02-20T08:26:56;5.80;;;2.83;;
11000;SDS011;5553;48.506;8.870;2023-02-20T08:29:24;6.90;;;3.80;;
11000;SDS011;5553;48.506;8.870;2023-02-20T08:31:52;6.70;;;3.37;;
11000;SDS011;5553;48.506;8.870;2023-02-20T08:34:21;3.50;;;2.20;;
11000;SDS011;5553;48.506;8.870;2023-02-20T08:36:49;6.43;;;2.83;;
11000;SDS011;5553;48.506;8.870;2023-02-20T08:39:17;5.70;;;3.23;;
11000;SDS011;5553;48.506;8.870;2023-02-20T08:41:48;6.27;;;2.70;;
11000;SDS011;5553;48.506;8.870;2023-02-20T08:44:16;5.80;;;2.97;;
11000;SDS011;5553;48.506;8.870;2023-02-20T08:46:45;5.47;;;2.20;;
11000;SDS011;5553;48.506;8.870;2023-02-20T10:12:01;6.30;;;2.17;;
11000;SDS011;5553;48.506;8.870;2023-02-20T10:14:40;4.53;;;1.80;;
11000;SDS011;5553;48.506;8.870;2023-02-20T10:17:20;2.57;;;2.23;;
11000;SDS011;5553;48.506;8.870;2023-02-20T10:19:58;2.77;;;1.70;;
11000;SDS011;5553;48.506;8.870;2023-02-20T10:25:48;4.80;;;1.50;;
11000;SDS011;5553;48.506;8.870;2023-02-20T10:34:47;4.43;;;2.33;;
11000;SDS011;5553;48.506;8.870;2023-02-20T10:42:43;1.53;;;1.27;;
11000;SDS011;5553;48.506;8.870;2023-02-20T10:51:32;5.27;;;1.50;;
11000;SDS011;5553;48.506;8.870;2023-02-20T10:54:06;4.87;;;1.47;;
11000;SDS011;5553;48.506;8.870;2023-02-20T10:56:40;3.47;;;1.50;;
11000;SDS011;5553;48.506;8.870;2023-02-20T10:59:12;3.60;;;1.60;;
11000;SDS011;5553;48.506;8.870;2023-02-20T11:01:47;2.70;;;1.30;;
11000;SDS011;5553;48.506;8.870;2023-02-20T11:23:34;4.57;;;1.30;;
11000;SDS011;5553;48.506;8.870;2023-02-20T11:26:16;7.10;;;1.40;;
11000;SDS011;5553;48.506;8.870;2023-02-20T11:28:55;1.63;;;1.20;;
11000;SDS011;5553;48.506;8.870;2023-02-20T11:31:26;3.30;;;1.70;;
11000;SDS011;5553;48.506;8.870;2023-02-20T11:33:55;6.73;;;1.40;;
11000;SDS011;5553;48.506;8.870;2023-02-20T11:36:24;1.60;;;1.50;;
11000;SDS011;5553;48.506;8.870;2023-02-20T11:38:58;2.43;;;1.10;;
11000;SDS011;5553;48.506;8.870;2023-02-20T11:41:30;2.90;;;1.63;;
11000;SDS011;5553;48.506;8.870;2023-02-20T11:44:05;3.30;;;1.07;;
11000;SDS011;5553;48.506;8.870;2023-02-20T11:46:42;3.60;;;1.27;;
11000;SDS011;5553;48.506;8.870;2023-02-20T11:49:21;2.90;;;1.27;;
11000;SDS011;5553;48.506;8.870;2023-02-20T11:51:51;2.77;;;1.40;;
11000;SDS011;5553;48.506;8.870;2023-02-20T11:54:23;5.03;;;1.57;;
11000;SDS011;5553;48.506;8.870;2023-02-20T11:56:54;2.97;;;1.13;;
11000;SDS011;5553;48.506;8.870;2023-02-20T11:59:29;4.90;;;1.10;;
11000;SDS011;5553;48.506;8.870;2023-02-20T12:05:03;3.13;;;1.30;;
11000;SDS011;5553;48.506;8.870;2023-02-20T12:07:40;2.27;;;0.97;;
11000;SDS011;5553;48.506;8.870;2023-02-20T12:10:26;4.87;;;1.30;;
11000;SDS011;5553;48.506;8.870;2023-02-20T12:13:00;0.87;;;0.87;;
11000;SDS011;5553;48.506;8.870;2023-02-20T12:15:29;1.57;;;1.07;;
11000;SDS011;5553;48.506;8.870;2023-02-20T12:21:01;1.47;;;1.27;;
11000;SDS011;5553;48.506;8.870;2023-02-20T12:23:38;3.10;;;1.20;;
11000;SDS011;5553;48.506;8.870;2023-02-20T12:26:18;1.13;;;1.00;;
11000;SDS011;5553;48.506;8.870;2023-02-20T12:29:00;3.87;;;1.20;;
11000;SDS011;5553;48.506;8.870;2023-02-20T12:31:42;2.00;;;0.90;;
11000;SDS011;5553;48.506;8.870;2023-02-20T12:34:29;1.27;;;1.17;;
11000;SDS011;5553;48.506;8.870;2023-02-20T12:37:09;3.03;;;1.40;;
11000;SDS011;5553;48.506;8.870;2023-02-20T12:39:47;1.23;;;0.83;;
11000;SDS011;5553;48.506;8.870;2023-02-20T12:42:30;1.07;;;0.97;;
11000;SDS011;5553;48.506;8.870;2023-02-20T12:45:12;3.17;;;0.70;;
11000;SDS011;5553;48.506;8.870;2023-02-20T12:47:45;1.70;;;0.93;;
11000;SDS011;5553;48.506;8.870;2023-02-20T12:50:23;1.77;;;1.03;;
11000;SDS011;5553;48.506;8.870;2023-02-20T12:53:12;5.67;;;1.10;;
11000;SDS011;5553;48.506;8.870;2023-02-20T12:55:55;1.30;;;0.93;;
11000;SDS011;5553;48.506;8.870;2023-02-20T12:58:41;1.30;;;1.20;;
11000;SDS011;5553;48.506;8.870;2023-02-20T13:01:15;1.27;;;0.80;;
11000;SDS011;5553;48.506;8.870;2023-02-20T13:03:50;1.30;;;1.00;;
11000;SDS011;5553;48.506;8.870;2023-02-20T13:06:29;2.17;;;1.43;;
11000;SDS011;5553;48.506;8.870;2023-02-20T13:09:06;1.50;;;0.90;;
11000;SDS011;5553;48.506;8.870;2023-02-20T13:11:43;2.90;;;1.07;;
11000;SDS011;5553;48.506;8.870;2023-02-20T13:14:23;2.10;;;1.00;;
11000;SDS011;5553;48.506;8.870;2023-02-20T13:17:02;2.40;;;0.80;;
11000;SDS011;5553;48.506;8.870;2023-02-20T13:19:43;2.10;;;0.90;;
11000;SDS011;5553;48.506;8.870;2023-02-20T13:22:19;1.30;;;1.20;;
11000;SDS011;5553;48.506;8.870;2023-02-20T13:24:48;1.10;;;0.87;;
11000;SDS011;5553;48.506;8.870;2023-02-20T13:27:26;2.40;;;1.20;;
11000;SDS011;5553;48.506;8.870;2023-02-20T13:29:59;2.23;;;1.50;;
11000;SDS011;5553;48.506;8.870;2023-02-20T13:32:29;2.20;;;0.90;;
11000;SDS011;5553;48.506;8.870;2023-02-20T13:37:57;1.30;;;0.97;;
11000;SDS011;5553;48.506;8.870;2023-02-20T13:40:37;2.60;;;1.00;;
11000;SDS011;5553;48.506;8.870;2023-02-20T13:46:10;1.53;;;0.97;;
11000;SDS011;5553;48.506;8.870;2023-02-20T13:48:47;2.10;;;1.10;;
11000;SDS011;5553;48.506;8.870;2023-02-20T13:51:30;1.50;;;1.10;;
11000;SDS011;5553;48.506;8.870;2023-02-20T13:56:55;1.00;;;0.70;;
11000;SDS011;5553;48.506;8.870;2023-02-20T13:59:29;0.97;;;0.70;;
11000;SDS011;5553;48.506;8.870;2023-02-20T14:02:11;3.90;;;0.70;;
11000;SDS011;5553;48.506;8.870;2023-02-20T14:04:54;2.50;;;0.70;;
11000;SDS011;5553;48.506;8.870;2023-02-20T14:07:27;2.07;;;0.50;;
11000;SDS011;5553;48.506;8.870;2023-02-20T14:10:00;1.80;;;0.63;;
11000;SDS011;5553;48.506;8.870;2023-02-20T14:12:30;2.60;;;0.87;;
11000;SDS011;5553;48.506;8.870;2023-02-20T14:15:01;1.63;;;0.70;;
11000;SDS011;5553;48.506;8.870;2023-02-20T14:17:34;1.13;;;0.77;;
11000;SDS011;5553;48.506;8.870;2023-02-20T14:20:05;2.20;;;0.90;;
11000;SDS011;5553;48.506;8.870;2023-02-20T14:22:46;1.80;;;0.80;;
11000;SDS011;5553;48.506;8.870;2023-02-20T14:28:09;1.57;;;0.50;;
11000;SDS011;5553;48.506;8.870;2023-02-20T14:30:39;0.83;;;0.83;;
11000;SDS011;5553;48.506;8.870;2023-02-20T14:33:14;5.13;;;0.80;;
11000;SDS011;5553;48.506;8.870;2023-02-20T14:35:48;1.17;;;0.70;;
11000;SDS011;5553;48.506;8.870;2023-02-20T14:38:40;1.40;;;0.70;;
11000;SDS011;5553;48.506;8.870;2023-02-20T14:41:17;1.13;;;0.70;;
11000;SDS011;5553;48.506;8.870;2023-02-20T14:43:52;1.77;;;0.60;;
11000;SDS011;5553;48.506;8.870;2023-02-20T14:46:22;1.10;;;0.80;;
11000;SDS011;5553;48.506;8.870;2023-02-20T14:49:05;1.43;;;0.90;;
11000;SDS011;5553;48.506;8.870;2023-02-20T14:51:35;1.73;;;0.90;;
11000;SDS011;5553;48.506;8.870;2023-02-20T14:54:09;0.90;;;0.40;;
11000;SDS011;5553;48.506;8.870;2023-02-20T14:56:44;1.87;;;0.50;;
11000;SDS011;5553;48.506;8.870;2023-02-20T14:59:15;1.20;;;0.60;;
11000;SDS011;5553;48.506;8.870;2023-02-20T15:01:49;2.10;;;0.83;;
11000;SDS011;5553;48.506;8.870;2023-02-20T15:04:21;1.00;;;0.77;;
11000;SDS011;5553;48.506;8.870;2023-02-20T15:06:50;1.23;;;0.67;;
11000;SDS011;5553;48.506;8.870;2023-02-20T15:09:20;0.90;;;0.60;;
11000;SDS011;5553;48.506;8.870;2023-02-20T15:11:49;0.80;;;0.60;;
11000;SDS011;5553;48.506;8.870;2023-02-20T15:14:20;1.10;;;0.70;;
11000;SDS011;5553;48.506;8.870;2023-02-20T15:19:37;1.10;;;0.73;;
11000;SDS011;5553;48.506;8.870;2023-02-20T15:22:19;0.87;;;0.60;;
11000;SDS011;5553;48.506;8.870;2023-02-20T15:24:49;1.73;;;1.30;;
11000;SDS011;5553;48.506;8.870;2023-02-20T15:27:19;0.70;;;0.63;;
11000;SDS011;5553;48.506;8.870;2023-02-20T15:32:36;1.17;;;0.60;;
11000;SDS011;5553;48.506;8.870;2023-02-20T15:35:14;0.60;;;0.60;;
11000;SDS011;5553;48.506;8.870;2023-02-20T15:37:44;0.93;;;0.57;;
11000;SDS011;5553;48.506;8.870;2023-02-20T15:40:17;1.10;;;0.73;;
11000;SDS011;5553;48.506;8.870;2023-02-20T15:42:49;1.10;;;1.00;;
11000;SDS011;5553;48.506;8.870;2023-02-20T15:45:20;1.53;;;1.00;;
11000;SDS011;5553;48.506;8.870;2023-02-20T15:47:48;0.80;;;0.50;;
11000;SDS011;5553;48.506;8.870;2023-02-20T15:50:19;2.30;;;1.00;;
11000;SDS011;5553;48.506;8.870;2023-02-20T15:52:48;1.43;;;0.90;;
11000;SDS011;5553;48.506;8.870;2023-02-20T15:55:18;1.27;;;0.60;;
11000;SDS011;5553;48.506;8.870;2023-02-20T15:57:48;1.57;;;1.00;;
11000;SDS011;5553;48.506;8.870;2023-02-20T16:00:22;2.33;;;0.77;;
11000;SDS011;5553;48.506;8.870;2023-02-20T16:02:54;2.90;;;0.80;;
11000;SDS011;5553;48.506;8.870;2023-02-20T16:05:25;2.40;;;0.80;;
11000;SDS011;5553;48.506;8.870;2023-02-20T16:07:54;1.40;;;0.83;;
11000;SDS011;5553;48.506;8.870;2023-02-20T16:10:22;1.80;;;1.00;;
11000;SDS011;5553;48.506;8.870;2023-02-20T16:12:51;2.10;;;0.80;;
11000;SDS011;5553;48.506;8.870;2023-02-20T16:15:21;1.90;;;1.07;;
11000;SDS011;5553;48.506;8.870;2023-02-20T16:17:50;1.30;;;1.20;;
11000;SDS011;5553;48.506;8.870;2023-02-20T16:20:19;1.30;;;0.90;;
11000;SDS011;5553;48.506;8.870;2023-02-20T16:22:51;3.13;;;1.17;;
11000;SDS011;5553;48.506;8.870;2023-02-20T16:25:20;2.40;;;0.97;;
11000;SDS011;5553;48.506;8.870;2023-02-20T16:27:50;4.63;;;1.07;;
11000;SDS011;5553;48.506;8.870;2023-02-20T16:30:20;1.53;;;0.70;;
11000;SDS011;5553;48.506;8.870;2023-02-20T16:32:52;8.70;;;1.30;;
11000;SDS011;5553;48.506;8.870;2023-02-20T16:35:21;1.57;;;1.23;;
11000;SDS011;5553;48.506;8.870;2023-02-20T16:44:14;4.43;;;2.40;;
11000;SDS011;5553;48.506;8.870;2023-02-20T16:46:48;1.20;;;1.10;;
11000;SDS011;5553;48.506;8.870;2023-02-20T16:49:16;2.13;;;1.50;;
11000;SDS011;5553;48.506;8.870;2023-02-20T16:51:44;7.83;;;1.60;;
11000;SDS011;5553;48.506;8.870;2023-02-20T16:54:15;2.77;;;1.20;;
11000;SDS011;5553;48.506;8.870;2023-02-20T16:56:44;3.87;;;1.43;;
11000;SDS011;5553;48.506;8.870;2023-02-20T16:59:15;1.80;;;1.20;;
11000;SDS011;5553;48.506;8.870;2023-02-20T17:01:45;3.43;;;1.07;;
11000;SDS011;5553;48.506;8.870;2023-02-20T17:04:15;2.10;;;1.17;;
11000;SDS011;5553;48.506;8.870;2023-02-20T17:06:43;2.90;;;1.13;;
11000;SDS011;5553;48.506;8.870;2023-02-20T17:09:12;4.30;;;0.90;;
11000;SDS011;5553;48.506;8.870;2023-02-20T17:11:40;1.63;;;1.20;;
11000;SDS011;5553;48.506;8.870;2023-02-20T17:14:09;2.23;;;1.10;;
11000;SDS011;5553;48.506;8.870;2023-02-20T17:16:41;2.93;;;1.50;;
11000;SDS011;5553;48.506;8.870;2023-02-20T17:19:15;2.43;;;1.40;;
11000;SDS011;5553;48.506;8.870;2023-02-20T17:21:46;2.13;;;1.20;;
11000;SDS011;5553;48.506;8.870;2023-02-20T17:24:16;2.03;;;1.70;;
11000;SDS011;5553;48.506;8.870;2023-02-20T17:26:45;3.40;;;1.57;;
11000;SDS011;5553;48.506;8.870;2023-02-20T17:29:13;3.13;;;1.13;;
11000;SDS011;5553;48.506;8.870;2023-02-20T17:31:44;2.43;;;1.30;;
11000;SDS011;5553;48.506;8.870;2023-02-20T17:34:13;2.73;;;1.40;;
11000;SDS011;5553;48.506;8.870;2023-02-20T17:36:41;1.40;;;1.03;;
11000;SDS011;5553;48.506;8.870;2023-02-20T17:39:13;2.07;;;1.27;;
11000;SDS011;5553;48.506;8.870;2023-02-20T17:41:42;2.33;;;1.43;;
11000;SDS011;5553;48.506;8.870;2023-02-20T17:44:11;3.03;;;1.33;;
11000;SDS011;5553;48.506;8.870;2023-02-20T17:46:46;3.80;;;1.67;;
11000;SDS011;5553;48.506;8.870;2023-02-20T17:49:15;1.17;;;1.07;;
11000;SDS011;5553;48.506;8.870;2023-02-20T17:51:44;2.03;;;0.90;;
11000;SDS011;5553;48.506;8.870;2023-02-20T17:54:13;3.50;;;1.07;;
11000;SDS011;5553;48.506;8.870;2023-02-20T17:56:43;3.90;;;1.20;;
11000;SDS011;5553;48.506;8.870;2023-02-20T17:59:12;3.13;;;1.30;;
11000;SDS011;5553;48.506;8.870;2023-02-20T18:01:40;2.03;;;1.03;;
11000;SDS011;5553;48.506;8.870;2023-02-20T18:04:12;1.00;;;0.90;;
11000;SDS011;5553;48.506;8.870;2023-02-20T18:06:40;2.63;;;1.10;;
11000;SDS011;5553;48.506;8.870;2023-02-20T18:09:11;2.57;;;1.23;;
11000;SDS011;5553;48.506;8.870;2023-02-20T18:11:42;7.50;;;1.20;;
11000;SDS011;5553;48.506;8.870;2023-02-20T18:14:11;4.20;;;1.60;;